sensor_id;sensor_type;location;lat;lon;timestamp;P1;durP1;ratioP1;P2;durP2;ratioP2
28625;SDS011;18905;42.668;23.364;2023-07-30T00:01:26;4.60;;;2.97;;
28625;SDS011;18905;42.668;23.364;2023-07-30T00:03:52;6.65;;;3.90;;
28625;SDS011;18905;42.668;23.364;2023-07-30T00:06:17;9.93;;;3.53;;
28625;SDS011;18905;42.668;23.364;2023-07-30T00:08:42;7.93;;;3.53;;
28625;SDS011;18905;42.668;23.364;2023-07-30T00:11:08;5.70;;;3.33;;
28625;SDS011;18905;42.668;23.364;2023-07-30T00:13:33;6.40;;;3.40;;
28625;SDS011;18905;42.668;23.364;2023-07-30T00:15:58;9.68;;;3.78;;
28625;SDS011;18905;42.668;23.364;2023-07-30T00:18:24;10.57;;;3.47;;
28625;SDS011;18905;42.668;23.364;2023-07-30T00:20:49;7.07;;;3.33;;
28625;SDS011;18905;42.668;23.364;2023-07-30T00:23:15;6.10;;;3.53;;
28625;SDS011;18905;42.668;23.364;2023-07-30T00:25:40;7.72;;;3.42;;
28625;SDS011;18905;42.668;23.364;2023-07-30T00:28:05;6.28;;;3.58;;
28625;SDS011;18905;42.668;23.364;2023-07-30T00:30:31;12.18;;;3.60;;
28625;SDS011;18905;42.668;23.364;2023-07-30T00:32:56;9.80;;;3.17;;
28625;SDS011;18905;42.668;23.364;2023-07-30T00:35:21;5.88;;;3.10;;
28625;SDS011;18905;42.668;23.364;2023-07-30T00:37:47;7.10;;;3.30;;
28625;SDS011;18905;42.668;23.364;2023-07-30T00:40:12;7.03;;;3.35;;
28625;SDS011;18905;42.668;23.364;2023-07-30T00:42:38;7.15;;;3.17;;
28625;SDS011;18905;42.668;23.364;2023-07-30T00:45:03;5.57;;;2.72;;
28625;SDS011;18905;42.668;23.364;2023-07-30T00:47:29;10.85;;;3.80;;
28625;SDS011;18905;42.668;23.364;2023-07-30T00:49:55;6.90;;;3.35;;
28625;SDS011;18905;42.668;23.364;2023-07-30T00:52:21;4.78;;;3.10;;
28625;SDS011;18905;42.668;23.364;2023-07-30T00:54:48;5.40;;;3.15;;
28625;SDS011;18905;42.668;23.364;2023-07-30T00:57:14;6.75;;;3.20;;
28625;SDS011;18905;42.668;23.364;2023-07-30T00:59:41;4.93;;;3.47;;
28625;SDS011;18905;42.668;23.364;2023-07-30T01:02:08;5.13;;;3.33;;
28625;SDS011;18905;42.668;23.364;2023-07-30T01:04:33;3.67;;;3.25;;
28625;SDS011;18905;42.668;23.364;2023-07-30T01:06:59;11.15;;;3.50;;
28625;SDS011;18905;42.668;23.364;2023-07-30T01:09:24;7.43;;;4.18;;
28625;SDS011;18905;42.668;23.364;2023-07-30T01:11:51;7.32;;;3.70;;
28625;SDS011;18905;42.668;23.364;2023-07-30T01:14:19;7.22;;;3.30;;
28625;SDS011;18905;42.668;23.364;2023-07-30T01:16:45;9.45;;;3.55;;
28625;SDS011;18905;42.668;23.364;2023-07-30T01:19:11;7.68;;;3.60;;
28625;SDS011;18905;42.668;23.364;2023-07-30T01:21:36;7.03;;;3.38;;
28625;SDS011;18905;42.668;23.364;2023-07-30T01:24:02;5.78;;;3.75;;
28625;SDS011;18905;42.668;23.364;2023-07-30T01:26:44;8.63;;;3.95;;
28625;SDS011;18905;42.668;23.364;2023-07-30T01:29:12;7.97;;;4.15;;
28625;SDS011;18905;42.668;23.364;2023-07-30T01:31:41;6.97;;;3.40;;
28625;SDS011;18905;42.668;23.364;2023-07-30T01:34:09;8.05;;;3.85;;
28625;SDS011;18905;42.668;23.364;2023-07-30T01:36:37;7.82;;;3.72;;
28625;SDS011;18905;42.668;23.364;2023-07-30T01:39:03;6.70;;;3.80;;
28625;SDS011;18905;42.668;23.364;2023-07-30T01:41:30;7.03;;;3.85;;
28625;SDS011;18905;42.668;23.364;2023-07-30T01:43:56;7.07;;;3.75;;
28625;SDS011;18905;42.668;23.364;2023-07-30T01:46:21;6.50;;;3.72;;
28625;SDS011;18905;42.668;23.364;2023-07-30T01:48:47;6.63;;;3.65;;
28625;SDS011;18905;42.668;23.364;2023-07-30T01:51:12;6.70;;;3.50;;
28625;SDS011;18905;42.668;23.364;2023-07-30T01:53:37;6.50;;;3.63;;
28625;SDS011;18905;42.668;23.364;2023-07-30T01:56:03;7.15;;;3.58;;
28625;SDS011;18905;42.668;23.364;2023-07-30T01:58:28;4.65;;;3.78;;
28625;SDS011;18905;42.668;23.364;2023-07-30T02:00:54;4.80;;;3.28;;
28625;SDS011;18905;42.668;23.364;2023-07-30T02:03:19;9.70;;;3.90;;
28625;SDS011;18905;42.668;23.364;2023-07-30T02:05:44;11.25;;;4.07;;
28625;SDS011;18905;42.668;23.364;2023-07-30T02:08:10;5.32;;;3.45;;
28625;SDS011;18905;42.668;23.364;2023-07-30T02:10:35;8.68;;;3.45;;
28625;SDS011;18905;42.668;23.364;2023-07-30T02:13:00;6.07;;;3.55;;
28625;SDS011;18905;42.668;23.364;2023-07-30T02:15:26;5.95;;;3.60;;
28625;SDS011;18905;42.668;23.364;2023-07-30T02:17:51;4.55;;;3.22;;
28625;SDS011;18905;42.668;23.364;2023-07-30T02:20:16;9.77;;;3.67;;
28625;SDS011;18905;42.668;23.364;2023-07-30T02:22:42;6.13;;;3.83;;
28625;SDS011;18905;42.668;23.364;2023-07-30T02:25:07;5.03;;;3.53;;
28625;SDS011;18905;42.668;23.364;2023-07-30T02:27:33;11.40;;;4.15;;
28625;SDS011;18905;42.668;23.364;2023-07-30T02:29:58;7.35;;;3.58;;
28625;SDS011;18905;42.668;23.364;2023-07-30T02:32:24;7.70;;;3.60;;
28625;SDS011;18905;42.668;23.364;2023-07-30T02:34:49;8.32;;;3.90;;
28625;SDS011;18905;42.668;23.364;2023-07-30T02:37:14;6.28;;;3.88;;
28625;SDS011;18905;42.668;23.364;2023-07-30T02:39:40;6.97;;;3.40;;
28625;SDS011;18905;42.668;23.364;2023-07-30T02:42:06;5.43;;;3.83;;
28625;SDS011;18905;42.668;23.364;2023-07-30T02:44:31;6.90;;;4.10;;
28625;SDS011;18905;42.668;23.364;2023-07-30T02:46:56;5.22;;;3.60;;
28625;SDS011;18905;42.668;23.364;2023-07-30T02:49:22;6.60;;;3.58;;
28625;SDS011;18905;42.668;23.364;2023-07-30T02:51:47;6.18;;;3.40;;
28625;SDS011;18905;42.668;23.364;2023-07-30T02:54:14;7.05;;;3.85;;
28625;SDS011;18905;42.668;23.364;2023-07-30T02:56:43;8.60;;;3.75;;
28625;SDS011;18905;42.668;23.364;2023-07-30T02:59:08;11.45;;;5.15;;
28625;SDS011;18905;42.668;23.364;2023-07-30T03:01:33;11.20;;;3.95;;
28625;SDS011;18905;42.668;23.364;2023-07-30T03:03:59;6.15;;;3.90;;
28625;SDS011;18905;42.668;23.364;2023-07-30T03:06:24;7.32;;;4.05;;
28625;SDS011;18905;42.668;23.364;2023-07-30T03:08:50;11.18;;;3.53;;
28625;SDS011;18905;42.668;23.364;2023-07-30T03:11:15;9.57;;;4.45;;
28625;SDS011;18905;42.668;23.364;2023-07-30T03:13:40;7.82;;;3.95;;
28625;SDS011;18905;42.668;23.364;2023-07-30T03:16:06;7.45;;;3.78;;
28625;SDS011;18905;42.668;23.364;2023-07-30T03:18:32;6.53;;;3.50;;
28625;SDS011;18905;42.668;23.364;2023-07-30T03:20:58;5.78;;;3.88;;
28625;SDS011;18905;42.668;23.364;2023-07-30T03:23:26;4.90;;;3.47;;
28625;SDS011;18905;42.668;23.364;2023-07-30T03:25:52;6.18;;;3.40;;
28625;SDS011;18905;42.668;23.364;2023-07-30T03:28:17;6.97;;;3.70;;
28625;SDS011;18905;42.668;23.364;2023-07-30T03:30:43;7.95;;;3.90;;
28625;SDS011;18905;42.668;23.364;2023-07-30T03:33:08;9.05;;;3.60;;
28625;SDS011;18905;42.668;23.364;2023-07-30T03:35:33;6.90;;;4.35;;
28625;SDS011;18905;42.668;23.364;2023-07-30T03:37:59;7.28;;;4.70;;
28625;SDS011;18905;42.668;23.364;2023-07-30T03:40:24;7.15;;;4.43;;
28625;SDS011;18905;42.668;23.364;2023-07-30T03:42:50;9.10;;;4.25;;
28625;SDS011;18905;42.668;23.364;2023-07-30T03:45:15;8.75;;;4.40;;
28625;SDS011;18905;42.668;23.364;2023-07-30T03:47:41;15.68;;;4.68;;
28625;SDS011;18905;42.668;23.364;2023-07-30T03:50:06;7.40;;;4.50;;
28625;SDS011;18905;42.668;23.364;2023-07-30T03:52:32;5.68;;;4.10;;
28625;SDS011;18905;42.668;23.364;2023-07-30T03:54:57;8.77;;;4.25;;
28625;SDS011;18905;42.668;23.364;2023-07-30T03:57:22;5.88;;;3.72;;
28625;SDS011;18905;42.668;23.364;2023-07-30T03:59:48;6.90;;;4.28;;
28625;SDS011;18905;42.668;23.364;2023-07-30T04:02:13;13.52;;;4.50;;
28625;SDS011;18905;42.668;23.364;2023-07-30T04:04:41;8.27;;;4.43;;
28625;SDS011;18905;42.668;23.364;2023-07-30T04:07:09;7.40;;;4.35;;
28625;SDS011;18905;42.668;23.364;2023-07-30T04:09:35;7.03;;;4.68;;
28625;SDS011;18905;42.668;23.364;2023-07-30T04:12:01;5.72;;;4.20;;
28625;SDS011;18905;42.668;23.364;2023-07-30T04:14:26;9.80;;;4.43;;
28625;SDS011;18905;42.668;23.364;2023-07-30T04:16:51;6.07;;;4.35;;
28625;SDS011;18905;42.668;23.364;2023-07-30T04:19:17;7.57;;;4.50;;
28625;SDS011;18905;42.668;23.364;2023-07-30T04:21:42;8.45;;;4.05;;
28625;SDS011;18905;42.668;23.364;2023-07-30T04:24:07;4.78;;;3.28;;
28625;SDS011;18905;42.668;23.364;2023-07-30T04:26:33;5.82;;;3.60;;
28625;SDS011;18905;42.668;23.364;2023-07-30T04:28:58;6.60;;;3.47;;
28625;SDS011;18905;42.668;23.364;2023-07-30T04:31:23;4.30;;;3.22;;
28625;SDS011;18905;42.668;23.364;2023-07-30T04:33:49;5.22;;;3.35;;
28625;SDS011;18905;42.668;23.364;2023-07-30T04:36:14;6.65;;;3.58;;
28625;SDS011;18905;42.668;23.364;2023-07-30T04:38:40;7.85;;;3.17;;
28625;SDS011;18905;42.668;23.364;2023-07-30T04:41:05;4.07;;;3.50;;
28625;SDS011;18905;42.668;23.364;2023-07-30T04:43:30;4.68;;;2.83;;
28625;SDS011;18905;42.668;23.364;2023-07-30T04:45:56;5.93;;;3.30;;
28625;SDS011;18905;42.668;23.364;2023-07-30T04:48:21;7.50;;;3.72;;
28625;SDS011;18905;42.668;23.364;2023-07-30T04:50:47;4.47;;;2.97;;
28625;SDS011;18905;42.668;23.364;2023-07-30T04:53:12;4.10;;;3.15;;
28625;SDS011;18905;42.668;23.364;2023-07-30T04:55:37;3.97;;;3.08;;
28625;SDS011;18905;42.668;23.364;2023-07-30T04:58:03;3.42;;;2.83;;
28625;SDS011;18905;42.668;23.364;2023-07-30T05:00:28;6.45;;;3.33;;
28625;SDS011;18905;42.668;23.364;2023-07-30T05:02:54;6.22;;;3.40;;
28625;SDS011;18905;42.668;23.364;2023-07-30T05:05:19;6.55;;;3.42;;
28625;SDS011;18905;42.668;23.364;2023-07-30T05:07:45;4.47;;;3.10;;
28625;SDS011;18905;42.668;23.364;2023-07-30T05:10:10;5.60;;;3.00;;
28625;SDS011;18905;42.668;23.364;2023-07-30T05:12:36;3.33;;;2.80;;
28625;SDS011;18905;42.668;23.364;2023-07-30T05:15:01;7.65;;;3.20;;
28625;SDS011;18905;42.668;23.364;2023-07-30T05:17:27;3.22;;;2.85;;
28625;SDS011;18905;42.668;23.364;2023-07-30T05:19:52;9.45;;;3.90;;
28625;SDS011;18905;42.668;23.364;2023-07-30T05:22:18;7.10;;;3.55;;
28625;SDS011;18905;42.668;23.364;2023-07-30T05:24:44;7.38;;;4.10;;
28625;SDS011;18905;42.668;23.364;2023-07-30T05:27:09;6.60;;;3.95;;
28625;SDS011;18905;42.668;23.364;2023-07-30T05:29:34;9.68;;;4.32;;
28625;SDS011;18905;42.668;23.364;2023-07-30T05:32:00;10.68;;;4.03;;
28625;SDS011;18905;42.668;23.364;2023-07-30T05:34:25;11.02;;;4.28;;
28625;SDS011;18905;42.668;23.364;2023-07-30T05:36:50;15.55;;;4.38;;
28625;SDS011;18905;42.668;23.364;2023-07-30T05:39:16;8.23;;;4.00;;
28625;SDS011;18905;42.668;23.364;2023-07-30T05:41:41;8.43;;;4.70;;
28625;SDS011;18905;42.668;23.364;2023-07-30T05:44:07;14.75;;;4.85;;
28625;SDS011;18905;42.668;23.364;2023-07-30T05:46:32;6.63;;;4.80;;
28625;SDS011;18905;42.668;23.364;2023-07-30T05:48:57;11.32;;;5.35;;
28625;SDS011;18905;42.668;23.364;2023-07-30T05:51:23;10.77;;;4.90;;
28625;SDS011;18905;42.668;23.364;2023-07-30T05:53:48;12.82;;;4.68;;
28625;SDS011;18905;42.668;23.364;2023-07-30T05:56:14;12.73;;;5.07;;
28625;SDS011;18905;42.668;23.364;2023-07-30T05:58:39;9.02;;;5.28;;
28625;SDS011;18905;42.668;23.364;2023-07-30T06:01:04;7.60;;;4.00;;
28625;SDS011;18905;42.668;23.364;2023-07-30T06:03:30;11.50;;;4.38;;
28625;SDS011;18905;42.668;23.364;2023-07-30T06:05:55;11.50;;;4.13;;
28625;SDS011;18905;42.668;23.364;2023-07-30T06:08:21;11.90;;;4.25;;
28625;SDS011;18905;42.668;23.364;2023-07-30T06:10:46;6.38;;;3.95;;
28625;SDS011;18905;42.668;23.364;2023-07-30T06:13:12;4.63;;;3.38;;
28625;SDS011;18905;42.668;23.364;2023-07-30T06:15:37;10.00;;;3.72;;
28625;SDS011;18905;42.668;23.364;2023-07-30T06:18:03;9.35;;;3.63;;
28625;SDS011;18905;42.668;23.364;2023-07-30T06:20:28;6.45;;;4.10;;
28625;SDS011;18905;42.668;23.364;2023-07-30T06:22:54;6.38;;;3.53;;
28625;SDS011;18905;42.668;23.364;2023-07-30T06:25:19;6.93;;;3.90;;
28625;SDS011;18905;42.668;23.364;2023-07-30T06:27:45;4.47;;;3.30;;
28625;SDS011;18905;42.668;23.364;2023-07-30T06:30:10;6.78;;;3.28;;
28625;SDS011;18905;42.668;23.364;2023-07-30T06:32:36;7.45;;;3.40;;
28625;SDS011;18905;42.668;23.364;2023-07-30T06:35:01;6.00;;;3.65;;
28625;SDS011;18905;42.668;23.364;2023-07-30T06:37:28;4.88;;;3.47;;
28625;SDS011;18905;42.668;23.364;2023-07-30T06:39:53;6.35;;;3.30;;
28625;SDS011;18905;42.668;23.364;2023-07-30T06:42:18;3.78;;;3.00;;
28625;SDS011;18905;42.668;23.364;2023-07-30T06:44:44;9.35;;;3.58;;
28625;SDS011;18905;42.668;23.364;2023-07-30T06:47:09;5.25;;;2.95;;
28625;SDS011;18905;42.668;23.364;2023-07-30T06:49:35;9.55;;;3.40;;
28625;SDS011;18905;42.668;23.364;2023-07-30T06:52:03;3.95;;;3.30;;
28625;SDS011;18905;42.668;23.364;2023-07-30T06:54:29;6.00;;;3.08;;
28625;SDS011;18905;42.668;23.364;2023-07-30T06:56:54;4.45;;;3.28;;
28625;SDS011;18905;42.668;23.364;2023-07-30T06:59:20;6.22;;;2.95;;
28625;SDS011;18905;42.668;23.364;2023-07-30T07:01:45;5.15;;;3.00;;
28625;SDS011;18905;42.668;23.364;2023-07-30T07:04:10;6.03;;;3.25;;
28625;SDS011;18905;42.668;23.364;2023-07-30T07:06:36;7.25;;;3.90;;
28625;SDS011;18905;42.668;23.364;2023-07-30T07:09:01;7.35;;;3.45;;
28625;SDS011;18905;42.668;23.364;2023-07-30T07:11:27;8.93;;;3.60;;
28625;SDS011;18905;42.668;23.364;2023-07-30T07:13:52;10.88;;;3.75;;
28625;SDS011;18905;42.668;23.364;2023-07-30T07:16:17;4.72;;;3.40;;
28625;SDS011;18905;42.668;23.364;2023-07-30T07:18:43;7.07;;;3.35;;
28625;SDS011;18905;42.668;23.364;2023-07-30T07:21:10;7.05;;;3.67;;
28625;SDS011;18905;42.668;23.364;2023-07-30T07:23:35;6.63;;;3.80;;
28625;SDS011;18905;42.668;23.364;2023-07-30T07:26:00;5.22;;;3.80;;
28625;SDS011;18905;42.668;23.364;2023-07-30T07:28:26;11.00;;;4.10;;
28625;SDS011;18905;42.668;23.364;2023-07-30T07:30:51;8.68;;;4.03;;
28625;SDS011;18905;42.668;23.364;2023-07-30T07:33:17;7.53;;;3.67;;
28625;SDS011;18905;42.668;23.364;2023-07-30T07:35:42;8.77;;;3.88;;
28625;SDS011;18905;42.668;23.364;2023-07-30T07:38:07;7.68;;;4.10;;
28625;SDS011;18905;42.668;23.364;2023-07-30T07:40:38;4.93;;;4.00;;
28625;SDS011;18905;42.668;23.364;2023-07-30T07:43:07;11.00;;;3.80;;
28625;SDS011;18905;42.668;23.364;2023-07-30T07:45:33;6.55;;;4.25;;
28625;SDS011;18905;42.668;23.364;2023-07-30T07:47:59;10.13;;;4.07;;
28625;SDS011;18905;42.668;23.364;2023-07-30T07:50:25;9.50;;;4.53;;
28625;SDS011;18905;42.668;23.364;2023-07-30T07:52:50;9.38;;;3.92;;
28625;SDS011;18905;42.668;23.364;2023-07-30T07:55:16;10.70;;;4.05;;
28625;SDS011;18905;42.668;23.364;2023-07-30T07:57:42;8.02;;;3.72;;
28625;SDS011;18905;42.668;23.364;2023-07-30T08:00:07;5.15;;;3.65;;
28625;SDS011;18905;42.668;23.364;2023-07-30T08:02:34;6.57;;;4.22;;
28625;SDS011;18905;42.668;23.364;2023-07-30T08:04:59;4.43;;;3.30;;
28625;SDS011;18905;42.668;23.364;2023-07-30T08:07:25;6.63;;;3.70;;
28625;SDS011;18905;42.668;23.364;2023-07-30T08:09:50;7.40;;;4.00;;
28625;SDS011;18905;42.668;23.364;2023-07-30T08:12:16;6.63;;;4.18;;
28625;SDS011;18905;42.668;23.364;2023-07-30T08:14:42;8.68;;;3.60;;
28625;SDS011;18905;42.668;23.364;2023-07-30T08:17:07;7.40;;;3.80;;
28625;SDS011;18905;42.668;23.364;2023-07-30T08:19:33;8.45;;;4.07;;
28625;SDS011;18905;42.668;23.364;2023-07-30T08:21:58;7.07;;;3.75;;
28625;SDS011;18905;42.668;23.364;2023-07-30T08:24:24;5.70;;;3.13;;
28625;SDS011;18905;42.668;23.364;2023-07-30T08:26:49;4.60;;;3.30;;
28625;SDS011;18905;42.668;23.364;2023-07-30T08:29:15;7.72;;;3.70;;
28625;SDS011;18905;42.668;23.364;2023-07-30T08:31:40;4.90;;;3.40;;
28625;SDS011;18905;42.668;23.364;2023-07-30T08:34:06;10.73;;;3.60;;
28625;SDS011;18905;42.668;23.364;2023-07-30T08:36:32;5.30;;;3.10;;
28625;SDS011;18905;42.668;23.364;2023-07-30T08:38:57;4.82;;;3.28;;
28625;SDS011;18905;42.668;23.364;2023-07-30T08:41:23;6.43;;;3.38;;
28625;SDS011;18905;42.668;23.364;2023-07-30T08:43:49;5.60;;;3.25;;
28625;SDS011;18905;42.668;23.364;2023-07-30T08:46:16;5.18;;;3.03;;
28625;SDS011;18905;42.668;23.364;2023-07-30T08:48:42;4.78;;;3.33;;
28625;SDS011;18905;42.668;23.364;2023-07-30T08:51:07;7.20;;;3.78;;
28625;SDS011;18905;42.668;23.364;2023-07-30T08:53:33;7.20;;;3.35;;
28625;SDS011;18905;42.668;23.364;2023-07-30T08:55:59;3.78;;;3.15;;
28625;SDS011;18905;42.668;23.364;2023-07-30T08:58:26;4.57;;;2.85;;
28625;SDS011;18905;42.668;23.364;2023-07-30T09:00:53;5.88;;;2.88;;
28625;SDS011;18905;42.668;23.364;2023-07-30T09:03:21;4.20;;;2.80;;
28625;SDS011;18905;42.668;23.364;2023-07-30T09:05:49;4.90;;;3.03;;
28625;SDS011;18905;42.668;23.364;2023-07-30T09:08:15;6.25;;;3.05;;
28625;SDS011;18905;42.668;23.364;2023-07-30T09:10:42;7.32;;;3.15;;
28625;SDS011;18905;42.668;23.364;2023-07-30T09:13:07;5.15;;;3.47;;
28625;SDS011;18905;42.668;23.364;2023-07-30T09:15:34;5.20;;;3.40;;
28625;SDS011;18905;42.668;23.364;2023-07-30T09:18:02;5.53;;;2.80;;
28625;SDS011;18905;42.668;23.364;2023-07-30T09:20:36;5.53;;;3.20;;
28625;SDS011;18905;42.668;23.364;2023-07-30T09:23:02;5.28;;;2.92;;
28625;SDS011;18905;42.668;23.364;2023-07-30T09:25:27;4.10;;;2.90;;
28625;SDS011;18905;42.668;23.364;2023-07-30T09:27:53;4.55;;;2.80;;
28625;SDS011;18905;42.668;23.364;2023-07-30T09:30:21;6.18;;;3.28;;
28625;SDS011;18905;42.668;23.364;2023-07-30T09:32:52;4.72;;;3.05;;
28625;SDS011;18905;42.668;23.364;2023-07-30T09:35:19;4.82;;;2.90;;
28625;SDS011;18905;42.668;23.364;2023-07-30T09:37:44;3.45;;;3.00;;
28625;SDS011;18905;42.668;23.364;2023-07-30T09:40:11;4.80;;;2.88;;
28625;SDS011;18905;42.668;23.364;2023-07-30T09:42:38;7.82;;;3.17;;
28625;SDS011;18905;42.668;23.364;2023-07-30T09:45:07;7.13;;;3.03;;
28625;SDS011;18905;42.668;23.364;2023-07-30T09:47:33;3.85;;;2.88;;
28625;SDS011;18905;42.668;23.364;2023-07-30T09:50:02;3.83;;;2.97;;
28625;SDS011;18905;42.668;23.364;2023-07-30T09:52:28;5.55;;;3.20;;
28625;SDS011;18905;42.668;23.364;2023-07-30T09:54:55;6.00;;;3.17;;
28625;SDS011;18905;42.668;23.364;2023-07-30T09:57:23;5.95;;;3.28;;
28625;SDS011;18905;42.668;23.364;2023-07-30T09:59:49;8.13;;;2.78;;
28625;SDS011;18905;42.668;23.364;2023-07-30T10:02:14;6.35;;;3.70;;
28625;SDS011;18905;42.668;23.364;2023-07-30T10:04:43;6.10;;;2.95;;
28625;SDS011;18905;42.668;23.364;2023-07-30T10:07:17;3.80;;;3.10;;
28625;SDS011;18905;42.668;23.364;2023-07-30T10:09:47;5.07;;;3.03;;
28625;SDS011;18905;42.668;23.364;2023-07-30T10:12:18;7.10;;;2.80;;
28625;SDS011;18905;42.668;23.364;2023-07-30T10:14:47;7.70;;;3.53;;
28625;SDS011;18905;42.668;23.364;2023-07-30T10:17:12;4.53;;;3.38;;
28625;SDS011;18905;42.668;23.364;2023-07-30T10:19:38;7.75;;;3.40;;
28625;SDS011;18905;42.668;23.364;2023-07-30T10:22:19;4.28;;;3.20;;
28625;SDS011;18905;42.668;23.364;2023-07-30T10:24:57;4.22;;;2.90;;
28625;SDS011;18905;42.668;23.364;2023-07-30T10:27:28;7.85;;;3.22;;
28625;SDS011;18905;42.668;23.364;2023-07-30T10:30:14;3.97;;;3.03;;
28625;SDS011;18905;42.668;23.364;2023-07-30T10:35:39;5.07;;;3.00;;
28625;SDS011;18905;42.668;23.364;2023-07-30T10:38:15;4.20;;;3.20;;
28625;SDS011;18905;42.668;23.364;2023-07-30T10:43:54;4.85;;;3.50;;
28625;SDS011;18905;42.668;23.364;2023-07-30T10:46:19;3.75;;;3.00;;
28625;SDS011;18905;42.668;23.364;2023-07-30T10:48:46;4.63;;;3.08;;
28625;SDS011;18905;42.668;23.364;2023-07-30T10:51:13;5.07;;;3.60;;
28625;SDS011;18905;42.668;23.364;2023-07-30T10:53:43;5.97;;;3.60;;
28625;SDS011;18905;42.668;23.364;2023-07-30T10:56:09;6.20;;;3.00;;
28625;SDS011;18905;42.668;23.364;2023-07-30T10:58:35;5.80;;;3.17;;
28625;SDS011;18905;42.668;23.364;2023-07-30T11:01:10;5.70;;;3.40;;
28625;SDS011;18905;42.668;23.364;2023-07-30T11:03:36;5.03;;;3.50;;
28625;SDS011;18905;42.668;23.364;2023-07-30T11:06:03;7.40;;;3.50;;
28625;SDS011;18905;42.668;23.364;2023-07-30T11:08:32;4.15;;;3.28;;
28625;SDS011;18905;42.668;23.364;2023-07-30T11:11:02;6.07;;;3.22;;
28625;SDS011;18905;42.668;23.364;2023-07-30T11:13:27;7.15;;;3.47;;
28625;SDS011;18905;42.668;23.364;2023-07-30T11:15:53;5.72;;;3.28;;
28625;SDS011;18905;42.668;23.364;2023-07-30T11:18:18;7.38;;;3.75;;
28625;SDS011;18905;42.668;23.364;2023-07-30T11:20:44;8.25;;;3.35;;
28625;SDS011;18905;42.668;23.364;2023-07-30T11:23:19;6.50;;;3.53;;
28625;SDS011;18905;42.668;23.364;2023-07-30T11:28:14;5.65;;;3.50;;
28625;SDS011;18905;42.668;23.364;2023-07-30T11:30:40;5.50;;;3.45;;
28625;SDS011;18905;42.668;23.364;2023-07-30T11:33:05;3.40;;;3.10;;
28625;SDS011;18905;42.668;23.364;2023-07-30T11:35:31;6.30;;;3.17;;
28625;SDS011;18905;42.668;23.364;2023-07-30T11:37:56;5.10;;;3.45;;
28625;SDS011;18905;42.668;23.364;2023-07-30T11:40:22;6.57;;;3.53;;
28625;SDS011;18905;42.668;23.364;2023-07-30T11:42:48;4.80;;;3.60;;
28625;SDS011;18905;42.668;23.364;2023-07-30T11:45:20;4.88;;;3.55;;
28625;SDS011;18905;42.668;23.364;2023-07-30T11:47:48;4.90;;;3.45;;
28625;SDS011;18905;42.668;23.364;2023-07-30T11:50:14;6.47;;;3.83;;
28625;SDS011;18905;42.668;23.364;2023-07-30T11:52:56;4.05;;;3.20;;
28625;SDS011;18905;42.668;23.364;2023-07-30T11:55:22;7.80;;;3.70;;
28625;SDS011;18905;42.668;23.364;2023-07-30T11:57:49;7.80;;;3.90;;
28625;SDS011;18905;42.668;23.364;2023-07-30T12:00:15;7.78;;;3.40;;
28625;SDS011;18905;42.668;23.364;2023-07-30T12:02:41;4.93;;;4.00;;
28625;SDS011;18905;42.668;23.364;2023-07-30T12:05:09;6.22;;;3.95;;
28625;SDS011;18905;42.668;23.364;2023-07-30T12:07:35;4.28;;;3.22;;
28625;SDS011;18905;42.668;23.364;2023-07-30T12:10:11;5.32;;;3.50;;
28625;SDS011;18905;42.668;23.364;2023-07-30T12:12:47;5.57;;;3.50;;
28625;SDS011;18905;42.668;23.364;2023-07-30T12:15:17;4.65;;;3.30;;
28625;SDS011;18905;42.668;23.364;2023-07-30T12:17:42;6.07;;;3.65;;
28625;SDS011;18905;42.668;23.364;2023-07-30T12:20:08;4.82;;;3.42;;
28625;SDS011;18905;42.668;23.364;2023-07-30T12:22:34;5.85;;;3.70;;
28625;SDS011;18905;42.668;23.364;2023-07-30T12:25:01;13.15;;;3.70;;
28625;SDS011;18905;42.668;23.364;2023-07-30T12:27:28;4.05;;;3.35;;
28625;SDS011;18905;42.668;23.364;2023-07-30T12:29:53;6.05;;;3.28;;
28625;SDS011;18905;42.668;23.364;2023-07-30T12:32:19;4.70;;;3.60;;
28625;SDS011;18905;42.668;23.364;2023-07-30T12:34:44;6.28;;;3.88;;
28625;SDS011;18905;42.668;23.364;2023-07-30T12:37:10;3.97;;;3.17;;
28625;SDS011;18905;42.668;23.364;2023-07-30T12:39:35;9.52;;;3.80;;
28625;SDS011;18905;42.668;23.364;2023-07-30T12:42:01;5.15;;;3.50;;
28625;SDS011;18905;42.668;23.364;2023-07-30T12:44:26;7.43;;;4.07;;
28625;SDS011;18905;42.668;23.364;2023-07-30T12:46:51;6.32;;;3.42;;
28625;SDS011;18905;42.668;23.364;2023-07-30T12:49:17;4.85;;;3.90;;
28625;SDS011;18905;42.668;23.364;2023-07-30T12:51:43;6.38;;;4.07;;
28625;SDS011;18905;42.668;23.364;2023-07-30T12:54:08;5.85;;;3.65;;
28625;SDS011;18905;42.668;23.364;2023-07-30T12:56:33;6.22;;;4.22;;
28625;SDS011;18905;42.668;23.364;2023-07-30T12:58:59;5.95;;;4.00;;
28625;SDS011;18905;42.668;23.364;2023-07-30T13:01:24;5.63;;;3.40;;
28625;SDS011;18905;42.668;23.364;2023-07-30T13:03:50;6.60;;;3.70;;
28625;SDS011;18905;42.668;23.364;2023-07-30T13:06:16;7.28;;;4.03;;
28625;SDS011;18905;42.668;23.364;2023-07-30T13:08:42;9.02;;;4.20;;
28625;SDS011;18905;42.668;23.364;2023-07-30T13:11:07;5.70;;;3.63;;
28625;SDS011;18905;42.668;23.364;2023-07-30T13:13:33;8.18;;;4.18;;
28625;SDS011;18905;42.668;23.364;2023-07-30T13:15:58;6.95;;;4.25;;
28625;SDS011;18905;42.668;23.364;2023-07-30T13:18:26;5.60;;;3.58;;
28625;SDS011;18905;42.668;23.364;2023-07-30T13:20:52;10.98;;;3.75;;
28625;SDS011;18905;42.668;23.364;2023-07-30T13:23:17;8.50;;;4.07;;
28625;SDS011;18905;42.668;23.364;2023-07-30T13:25:42;6.25;;;3.88;;
28625;SDS011;18905;42.668;23.364;2023-07-30T13:28:08;6.03;;;4.43;;
28625;SDS011;18905;42.668;23.364;2023-07-30T13:30:33;7.07;;;3.80;;
28625;SDS011;18905;42.668;23.364;2023-07-30T13:32:58;5.32;;;3.78;;
28625;SDS011;18905;42.668;23.364;2023-07-30T13:35:24;4.38;;;3.75;;
28625;SDS011;18905;42.668;23.364;2023-07-30T13:37:49;5.40;;;3.42;;
28625;SDS011;18905;42.668;23.364;2023-07-30T13:40:14;7.55;;;4.13;;
28625;SDS011;18905;42.668;23.364;2023-07-30T13:42:40;4.68;;;3.58;;
28625;SDS011;18905;42.668;23.364;2023-07-30T13:45:05;6.63;;;4.07;;
28625;SDS011;18905;42.668;23.364;2023-07-30T13:47:31;7.20;;;4.03;;
28625;SDS011;18905;42.668;23.364;2023-07-30T13:49:56;4.25;;;3.85;;
28625;SDS011;18905;42.668;23.364;2023-07-30T13:52:22;9.30;;;4.13;;
28625;SDS011;18905;42.668;23.364;2023-07-30T13:54:47;6.10;;;3.67;;
28625;SDS011;18905;42.668;23.364;2023-07-30T13:57:13;7.25;;;3.95;;
28625;SDS011;18905;42.668;23.364;2023-07-30T13:59:47;8.88;;;4.78;;
28625;SDS011;18905;42.668;23.364;2023-07-30T14:02:13;5.32;;;3.90;;
28625;SDS011;18905;42.668;23.364;2023-07-30T14:04:38;6.82;;;3.85;;
28625;SDS011;18905;42.668;23.364;2023-07-30T14:07:04;5.32;;;3.85;;
28625;SDS011;18905;42.668;23.364;2023-07-30T14:09:29;6.13;;;4.20;;
28625;SDS011;18905;42.668;23.364;2023-07-30T14:11:58;5.90;;;4.05;;
28625;SDS011;18905;42.668;23.364;2023-07-30T14:14:24;9.00;;;4.25;;
28625;SDS011;18905;42.668;23.364;2023-07-30T14:16:51;7.05;;;4.00;;
28625;SDS011;18905;42.668;23.364;2023-07-30T14:19:16;6.47;;;3.53;;
28625;SDS011;18905;42.668;23.364;2023-07-30T14:21:42;7.20;;;4.05;;
28625;SDS011;18905;42.668;23.364;2023-07-30T14:24:07;7.97;;;4.28;;
28625;SDS011;18905;42.668;23.364;2023-07-30T14:26:33;7.38;;;3.83;;
28625;SDS011;18905;42.668;23.364;2023-07-30T14:28:58;8.98;;;4.07;;
28625;SDS011;18905;42.668;23.364;2023-07-30T14:31:23;7.45;;;4.20;;
28625;SDS011;18905;42.668;23.364;2023-07-30T14:33:49;6.72;;;4.70;;
28625;SDS011;18905;42.668;23.364;2023-07-30T14:36:14;5.93;;;3.95;;